Time;durP1;ratioP1;P1;durP2;ratioP2;P2;SDS_P1;SDS_P2;PMS_P1;PMS_P2;Temp;Humidity;BMP_temperature;BMP_pressure;BME280_temperature;BME280_humidity;BME280_pressure;Samples;Min_cycle;Max_cycle;Signal;HPM_P1;HPM_P2
2023/10/26 00:01:44;;;;;;;2.22;0.70;;;;;;;;;;5041537;28;20135;-87
2023/10/26 00:04:30;;;;;;;2.55;1.00;;;;;;;;;;5032958;28;20032;-86
2023/10/26 00:07:15;;;;;;;3.85;0.90;;;;;;;;;;5043624;28;20025;-88
2023/10/26 00:10:00;;;;;;;1.55;0.60;;;;;;;;;;5030666;28;20029;-90
2023/10/26 00:12:45;;;;;;;0.95;0.80;;;;;;;;;;5045180;28;20498;-86
2023/10/26 00:15:31;;;;;;;2.35;1.55;;;;;;;;;;5039460;28;20029;-87
2023/10/26 00:18:16;;;;;;;0.70;0.70;;;;;;;;;;5044294;28;20017;-85
2023/10/26 00:21:01;;;;;;;1.30;0.70;;;;;;;;;;5033661;28;20283;-86
2023/10/26 00:23:46;;;;;;;4.00;1.27;;;;;;;;;;5033312;28;20467;-84
2023/10/26 00:26:32;;;;;;;10.98;1.73;;;;;;;;;;5035612;28;20029;-87
2023/10/26 00:29:17;;;;;;;2.45;1.15;;;;;;;;;;5038241;28;20036;-86
2023/10/26 00:32:04;;;;;;;1.55;1.08;;;;;;;;;;5042824;28;20131;-88
2023/10/26 00:34:52;;;;;;;4.03;0.70;;;;;;;;;;5045501;28;20116;-88
2023/10/26 00:37:37;;;;;;;4.75;1.27;;;;;;;;;;5048553;28;20029;-88
2023/10/26 00:40:23;;;;;;;4.00;1.30;;;;;;;;;;5037771;28;20028;-88
2023/10/26 00:43:17;;;;;;;2.67;0.80;;;;;;;;;;5037897;28;20675;-89
2023/10/26 00:46:03;;;;;;;1.05;0.60;;;;;;;;;;5036907;28;20537;-87
2023/10/26 00:48:49;;;;;;;4.13;1.02;;;;;;;;;;5034117;28;20096;-85
2023/10/26 00:51:34;;;;;;;0.80;0.63;;;;;;;;;;5044091;28;20078;-86
2023/10/26 00:54:20;;;;;;;1.00;0.80;;;;;;;;;;5041277;28;20802;-86
2023/10/26 00:57:05;;;;;;;5.55;1.20;;;;;;;;;;5038737;28;20037;-86
2023/10/26 00:59:51;;;;;;;6.32;1.23;;;;;;;;;;5037492;28;20017;-86
2023/10/26 01:02:40;;;;;;;1.20;0.90;;;;;;;;;;5035377;28;20052;-88
2023/10/26 01:05:25;;;;;;;2.63;0.70;;;;;;;;;;5041391;28;20035;-88
2023/10/26 01:08:10;;;;;;;2.35;0.80;;;;;;;;;;5037875;28;20075;-88
2023/10/26 01:10:57;;;;;;;2.40;0.70;;;;;;;;;;5036623;28;20029;-88
2023/10/26 01:13:42;;;;;;;1.63;0.88;;;;;;;;;;5031827;28;20025;-88
2023/10/26 01:16:28;;;;;;;4.20;1.08;;;;;;;;;;5036497;28;20025;-87
2023/10/26 01:19:14;;;;;;;2.75;0.80;;;;;;;;;;5034302;28;20029;-88
2023/10/26 01:21:59;;;;;;;1.67;1.05;;;;;;;;;;5050168;28;20025;-88
2023/10/26 01:24:45;;;;;;;4.47;1.48;;;;;;;;;;5036812;28;20021;-88
2023/10/26 01:27:30;;;;;;;2.25;0.90;;;;;;;;;;5035161;28;20083;-88
2023/10/26 01:30:16;;;;;;;5.10;0.90;;;;;;;;;;5035892;28;20071;-87
2023/10/26 01:33:02;;;;;;;3.42;0.80;;;;;;;;;;5017499;28;20515;-88
2023/10/26 01:35:47;;;;;;;2.67;0.70;;;;;;;;;;5016694;28;20423;-87
2023/10/26 01:38:32;;;;;;;6.20;1.02;;;;;;;;;;5015872;28;20373;-89
2023/10/26 01:41:18;;;;;;;3.00;0.90;;;;;;;;;;5015496;28;20026;-85
2023/10/26 01:44:03;;;;;;;2.85;1.10;;;;;;;;;;5020322;28;20106;-87
2023/10/26 01:46:48;;;;;;;1.77;1.00;;;;;;;;;;5016596;28;20109;-88
2023/10/26 01:49:33;;;;;;;2.70;1.05;;;;;;;;;;5016010;28;20022;-89
2023/10/26 01:52:19;;;;;;;1.65;0.90;;;;;;;;;;5024687;28;20025;-89
2023/10/26 01:55:04;;;;;;;3.53;1.30;;;;;;;;;;5014539;28;20021;-88
2023/10/26 01:57:49;;;;;;;5.63;1.10;;;;;;;;;;5017103;28;20028;-89
2023/10/26 02:00:34;;;;;;;3.58;1.17;;;;;;;;;;5013964;28;20049;-89
2023/10/26 02:03:20;;;;;;;1.55;0.90;;;;;;;;;;5015447;28;20734;-86
2023/10/26 02:06:05;;;;;;;1.10;0.80;;;;;;;;;;5017789;28;20123;-87
2023/10/26 02:08:50;;;;;;;4.30;1.73;;;;;;;;;;5014785;28;20037;-87
2023/10/26 02:11:36;;;;;;;3.30;0.98;;;;;;;;;;5016195;28;20026;-88
2023/10/26 02:14:21;;;;;;;2.78;1.25;;;;;;;;;;5016217;28;20033;-86
2023/10/26 02:17:06;;;;;;;2.72;0.80;;;;;;;;;;5016804;28;20076;-86
2023/10/26 02:19:51;;;;;;;3.47;0.95;;;;;;;;;;5013624;28;20025;-87
2023/10/26 02:22:40;;;;;;;1.90;0.88;;;;;;;;;;5011408;28;20026;-86
2023/10/26 02:25:25;;;;;;;4.13;1.20;;;;;;;;;;5013671;28;20021;-86
2023/10/26 02:28:15;;;;;;;5.82;1.15;;;;;;;;;;5016663;28;20095;-87
2023/10/26 02:31:01;;;;;;;2.85;0.90;;;;;;;;;;5017673;28;20025;-86
2023/10/26 02:33:52;;;;;;;2.15;0.80;;;;;;;;;;5040534;28;20217;-86
2023/10/26 02:36:38;;;;;;;2.50;0.98;;;;;;;;;;5033134;28;20028;-86
2023/10/26 02:39:23;;;;;;;2.35;1.02;;;;;;;;;;5041003;28;20040;-87
2023/10/26 02:42:09;;;;;;;5.25;1.45;;;;;;;;;;5033049;28;20036;-87
2023/10/26 02:44:56;;;;;;;3.30;0.73;;;;;;;;;;5039951;28;20443;-87
2023/10/26 02:47:42;;;;;;;3.30;0.80;;;;;;;;;;5042180;28;20036;-87
2023/10/26 02:50:27;;;;;;;3.40;0.90;;;;;;;;;;5034413;28;20029;-87
2023/10/26 02:56:42;;;;;;;5.55;1.05;;;;;;;;;;4927373;29;20068;-88
2023/10/26 02:59:30;;;;;;;1.25;0.70;;;;;;;;;;4946917;28;20104;-87
2023/10/26 03:05:45;;;;;;;3.22;0.90;;;;;;;;;;4933625;29;20035;-90
2023/10/26 03:25:26;;;;;;;4.60;1.15;;;;;;;;;;4954140;28;20381;-86
2023/10/26 03:28:14;;;;;;;1.20;0.70;;;;;;;;;;4950285;28;20170;-85
2023/10/26 03:30:59;;;;;;;4.25;0.80;;;;;;;;;;5000768;28;20295;-85
2023/10/26 03:33:47;;;;;;;1.52;0.80;;;;;;;;;;5019893;28;20017;-86
2023/10/26 03:36:50;;;;;;;5.55;1.17;;;;;;;;;;5026853;28;20084;-86
2023/10/26 03:40:05;;;;;;;1.73;0.82;;;;;;;;;;5022860;28;20025;-86
2023/10/26 03:43:00;;;;;;;1.67;0.80;;;;;;;;;;5024750;28;20033;-86
2023/10/26 03:45:45;;;;;;;3.80;0.93;;;;;;;;;;5026425;28;20029;-87
2023/10/26 03:48:37;;;;;;;0.93;0.80;;;;;;;;;;5033069;28;20040;-87
2023/10/26 03:51:28;;;;;;;2.38;0.80;;;;;;;;;;5039754;28;20020;-86
2023/10/26 03:54:13;;;;;;;3.65;0.98;;;;;;;;;;5028398;28;20040;-88
2023/10/26 03:56:59;;;;;;;2.05;0.90;;;;;;;;;;5033866;28;20373;-87
2023/10/26 03:59:44;;;;;;;1.80;0.85;;;;;;;;;;5033341;28;20029;-86
2023/10/26 04:02:29;;;;;;;0.88;0.80;;;;;;;;;;5047865;28;20031;-87
2023/10/26 04:05:15;;;;;;;2.60;1.10;;;;;;;;;;5038237;28;20029;-88
2023/10/26 04:08:23;;;;;;;2.45;1.13;;;;;;;;;;5038138;28;20020;-88
2023/10/26 04:11:21;;;;;;;1.88;0.80;;;;;;;;;;5000959;28;20060;-88
2023/10/26 04:14:06;;;;;;;3.15;1.10;;;;;;;;;;5016970;28;20037;-89
2023/10/26 04:17:05;;;;;;;2.35;1.13;;;;;;;;;;5025184;28;20116;-89
2023/10/26 04:22:31;;;;;;;3.88;1.30;;;;;;;;;;5193503;22;20049;-87
2023/10/26 04:25:16;;;;;;;2.83;1.25;;;;;;;;;;5051434;28;20390;-85
2023/10/26 04:28:20;;;;;;;1.02;0.93;;;;;;;;;;5055021;28;20074;-85
2023/10/26 04:31:08;;;;;;;2.38;0.90;;;;;;;;;;5045468;28;20032;-86
2023/10/26 04:33:58;;;;;;;1.90;1.20;;;;;;;;;;5052233;28;20032;-86
2023/10/26 04:36:46;;;;;;;2.15;1.23;;;;;;;;;;5057634;28;20028;-86
2023/10/26 04:39:31;;;;;;;5.65;1.33;;;;;;;;;;5051207;28;20052;-85
2023/10/26 04:42:18;;;;;;;11.43;2.22;;;;;;;;;;5057000;28;20064;-85
2023/10/26 04:45:03;;;;;;;3.00;1.20;;;;;;;;;;5054757;28;20111;-86
2023/10/26 04:48:02;;;;;;;2.40;1.10;;;;;;;;;;5055702;28;20149;-86
2023/10/26 04:51:19;;;;;;;1.20;1.10;;;;;;;;;;5047025;28;20063;-87
2023/10/26 04:54:10;;;;;;;3.08;1.10;;;;;;;;;;5056950;28;20028;-86
2023/10/26 04:56:55;;;;;;;2.55;0.85;;;;;;;;;;5057197;28;20100;-85
2023/10/26 04:59:47;;;;;;;5.15;1.00;;;;;;;;;;5040218;28;20032;-86
2023/10/26 05:03:17;;;;;;;4.85;1.80;;;;;;;;;;5054677;28;20631;-86
2023/10/26 05:06:11;;;;;;;2.08;1.50;;;;;;;;;;4974769;28;20097;-85
2023/10/26 05:09:05;;;;;;;4.97;1.00;;;;;;;;;;4966821;28;20046;-85
2023/10/26 05:11:51;;;;;;;2.03;0.95;;;;;;;;;;5049704;28;20021;-86
2023/10/26 05:14:36;;;;;;;4.78;1.35;;;;;;;;;;5036516;28;20089;-87
2023/10/26 05:17:38;;;;;;;4.65;1.42;;;;;;;;;;5036756;28;20516;-86
2023/10/26 05:20:30;;;;;;;3.35;1.20;;;;;;;;;;5026958;28;20033;-87
2023/10/26 05:27:55;;;;;;;5.13;1.50;;;;;;;;;;5010501;28;20037;-88
2023/10/26 05:30:13;;;;;;;;;;;;;;;;;;5022554;28;21067;-88
2023/10/26 05:33:17;;;;;;;3.92;1.77;;;;;;;;;;4981670;28;19952;-86
2023/10/26 05:36:12;;;;;;;3.35;1.52;;;;;;;;;;4961624;28;20509;-86
2023/10/26 05:39:13;;;;;;;;;;;;;;;;;;;;;
2023/10/26 05:42:04;;;;;;;4.18;1.55;;;;;;;;;;4975548;28;20109;-85
2023/10/26 05:44:49;;;;;;;5.22;1.60;;;;;;;;;;5008127;28;20036;-85
2023/10/26 05:47:34;;;;;;;2.50;1.23;;;;;;;;;;5035785;28;20023;-86
2023/10/26 05:50:20;;;;;;;3.40;1.63;;;;;;;;;;5049779;28;20442;-87
2023/10/26 05:53:09;;;;;;;3.58;1.30;;;;;;;;;;5035672;28;20020;-86
2023/10/26 05:55:55;;;;;;;2.97;1.38;;;;;;;;;;5034999;28;20029;-86
2023/10/26 05:58:41;;;;;;;2.28;1.15;;;;;;;;;;5036243;28;20383;-88
2023/10/26 06:01:30;;;;;;;3.22;1.52;;;;;;;;;;5033471;28;20089;-89
2023/10/26 06:10:21;;;;;;;4.32;1.58;;;;;;;;;;6099735;22;20306;-90
2023/10/26 06:13:33;;;;;;;2.88;1.55;;;;;;;;;;5027018;28;20037;-91
2023/10/26 06:16:20;;;;;;;2.42;1.27;;;;;;;;;;5042962;28;20521;-85
2023/10/26 06:19:06;;;;;;;3.95;1.63;;;;;;;;;;5053163;28;20082;-89
2023/10/26 06:21:51;;;;;;;3.42;1.65;;;;;;;;;;5033377;28;20017;-88
2023/10/26 06:28:13;;;;;;;3.25;1.63;;;;;;;;;;5034647;28;20412;-87
2023/10/26 06:31:33;;;;;;;4.25;1.73;;;;;;;;;;5025586;28;20013;-90
2023/10/26 06:34:22;;;;;;;2.85;1.38;;;;;;;;;;4899261;28;20036;-88
2023/10/26 06:37:22;;;;;;;4.03;1.33;;;;;;;;;;4963402;28;20028;-84
2023/10/26 06:40:33;;;;;;;6.57;1.75;;;;;;;;;;5035071;28;20013;-91
2023/10/26 06:43:25;;;;;;;7.35;1.80;;;;;;;;;;5036430;28;20098;-89
2023/10/26 06:46:12;;;;;;;5.03;2.00;;;;;;;;;;5032047;28;20511;-84
2023/10/26 06:52:55;;;;;;;4.50;1.35;;;;;;;;;;4976410;28;20029;-85
2023/10/26 06:55:39;;;;;;;3.72;2.00;;;;;;;;;;5007106;28;20075;-88
2023/10/26 06:58:24;;;;;;;2.85;1.70;;;;;;;;;;4990269;28;20042;-86
2023/10/26 07:01:15;;;;;;;7.85;2.03;;;;;;;;;;5000764;28;20064;-89
2023/10/26 07:04:01;;;;;;;5.97;1.92;;;;;;;;;;5024731;28;20071;-86
2023/10/26 07:06:57;;;;;;;4.90;2.38;;;;;;;;;;5038428;28;20025;-87
2023/10/26 07:09:51;;;;;;;6.35;1.60;;;;;;;;;;5042021;28;20029;-86
2023/10/26 07:12:41;;;;;;;3.45;1.60;;;;;;;;;;5046049;28;20081;-87
2023/10/26 07:15:36;;;;;;;7.93;2.50;;;;;;;;;;5047920;28;20032;-88
2023/10/26 07:18:23;;;;;;;3.17;1.85;;;;;;;;;;5051139;28;20037;-86
2023/10/26 07:21:36;;;;;;;3.60;1.55;;;;;;;;;;5049671;28;20414;-89
2023/10/26 07:24:22;;;;;;;3.50;1.60;;;;;;;;;;5048001;28;20017;-87
2023/10/26 07:27:07;;;;;;;2.58;1.50;;;;;;;;;;5048845;28;20060;-88
2023/10/26 07:29:52;;;;;;;3.17;1.55;;;;;;;;;;5041702;28;20035;-87
2023/10/26 07:32:38;;;;;;;3.55;1.42;;;;;;;;;;5049010;28;20383;-86
2023/10/26 07:35:23;;;;;;;4.13;1.60;;;;;;;;;;5050727;28;20205;-86
2023/10/26 07:41:48;;;;;;;3.72;1.65;;;;;;;;;;5052920;28;20613;-91
2023/10/26 07:44:45;;;;;;;3.83;2.00;;;;;;;;;;5057813;28;20182;-90
2023/10/26 07:47:32;;;;;;;4.57;2.08;;;;;;;;;;5053668;28;20040;-90
2023/10/26 07:50:20;;;;;;;5.35;2.65;;;;;;;;;;5064390;28;20096;-90
2023/10/26 07:53:08;;;;;;;2.60;1.67;;;;;;;;;;5044588;28;20032;-87
2023/10/26 07:55:57;;;;;;;3.47;1.88;;;;;;;;;;5048713;28;20059;-89
2023/10/26 07:58:42;;;;;;;3.42;1.80;;;;;;;;;;5047415;28;20028;-90
2023/10/26 08:01:28;;;;;;;3.95;2.40;;;;;;;;;;5047407;28;20498;-91
2023/10/26 08:04:13;;;;;;;4.43;1.92;;;;;;;;;;5046190;28;20208;-89
2023/10/26 08:06:59;;;;;;;3.47;1.98;;;;;;;;;;5050103;28;20025;-91
2023/10/26 08:09:44;;;;;;;4.68;2.05;;;;;;;;;;5045545;28;20025;-88
2023/10/26 08:12:30;;;;;;;5.50;1.88;;;;;;;;;;5052920;28;20115;-89
2023/10/26 08:15:28;;;;;;;5.28;1.70;;;;;;;;;;5050113;28;20059;-92
2023/10/26 08:18:13;;;;;;;2.63;1.45;;;;;;;;;;5048438;28;20021;-90
2023/10/26 08:27:44;;;;;;;6.03;2.10;;;;;;;;;;5049278;28;20043;-88
2023/10/26 08:30:56;;;;;;;5.78;1.80;;;;;;;;;;5048232;28;20040;-91
2023/10/26 08:34:14;;;;;;;7.68;2.10;;;;;;;;;;5042582;28;20426;-91
2023/10/26 08:37:00;;;;;;;5.47;1.75;;;;;;;;;;5006107;28;20036;-91
2023/10/26 08:39:45;;;;;;;3.75;1.42;;;;;;;;;;5022080;28;20024;-89
2023/10/26 08:42:31;;;;;;;3.88;1.83;;;;;;;;;;5046538;28;20045;-84
2023/10/26 08:45:19;;;;;;;5.95;1.73;;;;;;;;;;5045069;28;20067;-88
2023/10/26 08:48:07;;;;;;;5.30;2.25;;;;;;;;;;5037064;28;20021;-87
2023/10/26 08:50:52;;;;;;;4.60;1.90;;;;;;;;;;5044799;28;20029;-89
2023/10/26 08:53:37;;;;;;;2.63;1.35;;;;;;;;;;5046973;28;20032;-88
2023/10/26 08:56:23;;;;;;;4.03;2.00;;;;;;;;;;5039981;28;20108;-88
2023/10/26 08:59:08;;;;;;;6.53;2.85;;;;;;;;;;5049565;28;20025;-87
2023/10/26 09:01:53;;;;;;;3.75;1.70;;;;;;;;;;5050535;28;20024;-88
2023/10/26 09:04:58;;;;;;;3.33;1.52;;;;;;;;;;5049937;28;20126;-89
2023/10/26 09:07:52;;;;;;;5.90;1.60;;;;;;;;;;5045837;28;20115;-90
2023/10/26 09:10:37;;;;;;;3.60;1.33;;;;;;;;;;5048676;28;20024;-84
2023/10/26 09:13:25;;;;;;;3.92;1.60;;;;;;;;;;5051288;28;20040;-90
2023/10/26 09:16:11;;;;;;;5.22;1.73;;;;;;;;;;5053694;28;20696;-88
2023/10/26 09:18:57;;;;;;;6.13;2.03;;;;;;;;;;5047695;28;20036;-88
2023/10/26 09:21:49;;;;;;;3.90;2.05;;;;;;;;;;5041629;28;20025;-90
2023/10/26 09:24:34;;;;;;;3.15;1.95;;;;;;;;;;5044774;28;20047;-86
2023/10/26 09:27:19;;;;;;;3.63;1.73;;;;;;;;;;5021985;28;20100;-85
2023/10/26 09:30:05;;;;;;;3.10;1.48;;;;;;;;;;5022687;28;20116;-87
2023/10/26 09:32:51;;;;;;;3.20;1.40;;;;;;;;;;5044424;28;20032;-87
2023/10/26 09:35:36;;;;;;;2.33;1.27;;;;;;;;;;5031083;28;20025;-90
2023/10/26 09:38:35;;;;;;;3.53;2.00;;;;;;;;;;5018697;28;20380;-88
2023/10/26 09:41:21;;;;;;;2.78;1.52;;;;;;;;;;5028435;28;20090;-91
2023/10/26 09:44:06;;;;;;;2.92;1.58;;;;;;;;;;5029776;28;20568;-88
2023/10/26 09:46:52;;;;;;;1.38;1.10;;;;;;;;;;5026517;28;20064;-88
2023/10/26 09:49:37;;;;;;;3.15;1.40;;;;;;;;;;5029978;28;20029;-86
2023/10/26 09:52:23;;;;;;;3.60;1.25;;;;;;;;;;5030939;28;20064;-89
2023/10/26 09:55:10;;;;;;;2.08;1.10;;;;;;;;;;5022792;28;20094;-89
2023/10/26 09:57:59;;;;;;;3.33;1.38;;;;;;;;;;5028124;28;20032;-89
2023/10/26 10:00:44;;;;;;;6.50;1.50;;;;;;;;;;5028712;28;20033;-90
2023/10/26 10:03:42;;;;;;;2.13;1.23;;;;;;;;;;5021047;28;20255;-89
2023/10/26 10:06:47;;;;;;;4.15;1.50;;;;;;;;;;5032284;28;20044;-87
2023/10/26 10:09:52;;;;;;;4.35;1.60;;;;;;;;;;5030466;28;20041;-86
2023/10/26 10:12:38;;;;;;;3.92;1.30;;;;;;;;;;5034283;28;20037;-89
2023/10/26 10:15:34;;;;;;;1.73;1.25;;;;;;;;;;5011306;28;20208;-86
2023/10/26 10:18:21;;;;;;;8.07;2.67;;;;;;;;;;5026187;28;20033;-90
2023/10/26 10:21:27;;;;;;;2.78;1.35;;;;;;;;;;5030242;28;20044;-89
2023/10/26 10:24:32;;;;;;;7.88;3.72;;;;;;;;;;5031504;28;20701;-91
2023/10/26 10:27:18;;;;;;;7.03;3.65;;;;;;;;;;5019453;28;20037;-87
2023/10/26 10:30:13;;;;;;;7.68;2.67;;;;;;;;;;5034873;28;20025;-87
2023/10/26 10:32:58;;;;;;;3.90;1.88;;;;;;;;;;5035673;28;20664;-90
2023/10/26 10:35:49;;;;;;;7.40;2.65;;;;;;;;;;5034558;28;20374;-89
2023/10/26 10:38:35;;;;;;;5.93;2.53;;;;;;;;;;5048048;28;20024;-89
2023/10/26 10:41:21;;;;;;;3.70;1.85;;;;;;;;;;5043972;28;20163;-89
2023/10/26 10:44:09;;;;;;;3.67;1.90;;;;;;;;;;5049816;28;20108;-91
2023/10/26 10:46:55;;;;;;;3.80;1.70;;;;;;;;;;5019510;28;20040;-87
2023/10/26 10:49:40;;;;;;;3.15;2.05;;;;;;;;;;5047224;28;20738;-89
2023/10/26 10:52:25;;;;;;;2.70;1.50;;;;;;;;;;5049776;28;20090;-86
2023/10/26 10:55:10;;;;;;;4.72;2.05;;;;;;;;;;5046790;28;20115;-86
2023/10/26 10:57:56;;;;;;;2.95;2.20;;;;;;;;;;5046832;28;20124;-86
2023/10/26 11:00:45;;;;;;;6.38;2.50;;;;;;;;;;5048452;28;20064;-87
2023/10/26 11:03:31;;;;;;;4.07;2.55;;;;;;;;;;5047906;28;20100;-87
2023/10/26 11:06:16;;;;;;;6.43;3.00;;;;;;;;;;5052653;28;20088;-84
2023/10/26 11:09:01;;;;;;;4.85;3.00;;;;;;;;;;5070093;28;20045;-88
2023/10/26 11:11:47;;;;;;;4.30;2.65;;;;;;;;;;5066111;28;20097;-87
2023/10/26 11:14:32;;;;;;;5.30;2.70;;;;;;;;;;5059883;28;20024;-87
2023/10/26 11:17:18;;;;;;;7.85;2.70;;;;;;;;;;5068879;28;20039;-89
2023/10/26 11:20:03;;;;;;;4.72;2.97;;;;;;;;;;5068216;28;20069;-87
2023/10/26 11:22:55;;;;;;;5.93;2.97;;;;;;;;;;5049244;28;20488;-85
2023/10/26 11:25:40;;;;;;;5.50;2.88;;;;;;;;;;5050986;28;20090;-84
2023/10/26 11:28:32;;;;;;;5.47;2.60;;;;;;;;;;5040914;28;20021;-83
2023/10/26 11:31:36;;;;;;;2.88;2.03;;;;;;;;;;5048134;28;20029;-88
2023/10/26 11:34:24;;;;;;;5.97;2.78;;;;;;;;;;5048213;28;20045;-82
2023/10/26 11:37:10;;;;;;;2.95;1.80;;;;;;;;;;5045979;28;20110;-85
2023/10/26 11:39:55;;;;;;;3.55;2.40;;;;;;;;;;5043732;28;20024;-87
2023/10/26 11:42:44;;;;;;;3.85;2.25;;;;;;;;;;5034653;28;20107;-85
2023/10/26 11:45:45;;;;;;;7.63;1.88;;;;;;;;;;5045025;28;20395;-85
2023/10/26 11:48:32;;;;;;;5.32;2.25;;;;;;;;;;5047125;28;20029;-84
2023/10/26 11:51:17;;;;;;;2.92;2.15;;;;;;;;;;5044591;28;20409;-84
2023/10/26 11:54:10;;;;;;;4.90;2.50;;;;;;;;;;5044787;28;20461;-83
2023/10/26 11:56:58;;;;;;;6.22;2.75;;;;;;;;;;5050662;28;20088;-86
2023/10/26 11:59:44;;;;;;;3.83;2.60;;;;;;;;;;5049643;28;20124;-85
2023/10/26 12:02:29;;;;;;;4.13;2.30;;;;;;;;;;5045176;28;20185;-84
2023/10/26 12:05:17;;;;;;;3.97;2.38;;;;;;;;;;5040226;28;20032;-86
2023/10/26 12:08:03;;;;;;;5.23;2.33;;;;;;;;;;5048014;28;20479;-82
2023/10/26 12:10:48;;;;;;;6.60;2.95;;;;;;;;;;5045210;28;20033;-84
2023/10/26 12:13:34;;;;;;;4.25;2.05;;;;;;;;;;5042750;28;20411;-85
2023/10/26 12:16:19;;;;;;;7.90;3.30;;;;;;;;;;5047932;28;20079;-84
2023/10/26 12:19:05;;;;;;;8.50;3.78;;;;;;;;;;5028029;28;20021;-86
2023/10/26 12:21:52;;;;;;;8.23;2.97;;;;;;;;;;5047088;28;20372;-85
2023/10/26 12:24:38;;;;;;;5.40;3.00;;;;;;;;;;5050810;28;20047;-86
2023/10/26 12:27:23;;;;;;;4.25;2.40;;;;;;;;;;5051688;28;20029;-85
2023/10/26 12:30:09;;;;;;;2.95;1.75;;;;;;;;;;5047436;28;20107;-83
2023/10/26 12:32:54;;;;;;;4.13;1.60;;;;;;;;;;5046624;28;20030;-84
2023/10/26 12:35:40;;;;;;;4.57;2.33;;;;;;;;;;5052118;28;20025;-84
2023/10/26 12:38:25;;;;;;;6.10;2.50;;;;;;;;;;5051117;28;20210;-81
2023/10/26 12:41:10;;;;;;;2.45;1.85;;;;;;;;;;5049607;28;20462;-83
2023/10/26 12:43:56;;;;;;;4.57;1.95;;;;;;;;;;5045106;28;20375;-82
2023/10/26 12:46:41;;;;;;;4.28;2.10;;;;;;;;;;5049996;28;20029;-84
2023/10/26 12:49:26;;;;;;;3.72;1.70;;;;;;;;;;5051891;28;20384;-85
2023/10/26 12:52:11;;;;;;;2.72;1.73;;;;;;;;;;5049269;28;20108;-85
2023/10/26 12:55:00;;;;;;;4.00;1.98;;;;;;;;;;5031461;28;20059;-85
2023/10/26 12:57:45;;;;;;;3.05;1.92;;;;;;;;;;5042793;28;20512;-85
2023/10/26 13:00:31;;;;;;;3.13;1.90;;;;;;;;;;5051847;28;20037;-86
2023/10/26 13:03:16;;;;;;;3.53;2.15;;;;;;;;;;5063897;28;20268;-83
2023/10/26 13:06:02;;;;;;;4.45;1.98;;;;;;;;;;5039977;28;20048;-86
2023/10/26 13:08:47;;;;;;;2.15;1.83;;;;;;;;;;5051536;28;20029;-86
2023/10/26 13:11:32;;;;;;;4.75;2.60;;;;;;;;;;5050725;28;20049;-84
2023/10/26 13:14:18;;;;;;;3.35;2.67;;;;;;;;;;5057414;28;20039;-85
2023/10/26 13:17:03;;;;;;;4.70;3.30;;;;;;;;;;5056483;28;20028;-86
2023/10/26 13:19:48;;;;;;;6.20;3.22;;;;;;;;;;5055373;28;20047;-84
2023/10/26 13:22:33;;;;;;;5.97;3.65;;;;;;;;;;5053956;28;20031;-84
2023/10/26 13:25:18;;;;;;;6.32;3.83;;;;;;;;;;5053685;28;20712;-84
2023/10/26 13:28:04;;;;;;;6.40;3.33;;;;;;;;;;5054521;28;20203;-85
2023/10/26 13:30:49;;;;;;;5.05;3.13;;;;;;;;;;5052820;28;20044;-84
2023/10/26 13:33:34;;;;;;;7.28;3.40;;;;;;;;;;5051170;28;20024;-84
2023/10/26 13:36:20;;;;;;;5.68;3.15;;;;;;;;;;5053746;28;20028;-82
2023/10/26 13:39:05;;;;;;;6.95;3.83;;;;;;;;;;5056350;28;20374;-83
2023/10/26 13:41:51;;;;;;;5.55;3.13;;;;;;;;;;5054734;28;20052;-82
2023/10/26 13:44:36;;;;;;;4.50;2.90;;;;;;;;;;5054595;28;20116;-83
2023/10/26 13:47:21;;;;;;;5.25;2.90;;;;;;;;;;5053567;28;20024;-84
2023/10/26 13:50:07;;;;;;;4.18;2.80;;;;;;;;;;5054275;28;20032;-84
2023/10/26 13:52:52;;;;;;;7.63;3.70;;;;;;;;;;5054798;28;20043;-84
2023/10/26 13:55:37;;;;;;;5.65;3.28;;;;;;;;;;5053923;28;20116;-82
2023/10/26 13:58:22;;;;;;;6.15;3.33;;;;;;;;;;5052204;28;20578;-83
2023/10/26 14:01:12;;;;;;;8.32;4.20;;;;;;;;;;5056063;28;20138;-85
2023/10/26 14:03:57;;;;;;;5.05;2.85;;;;;;;;;;5053082;28;20032;-86
2023/10/26 14:06:46;;;;;;;6.35;3.38;;;;;;;;;;5053921;28;20043;-87
2023/10/26 14:09:31;;;;;;;7.78;3.92;;;;;;;;;;5055110;28;20040;-86
2023/10/26 14:12:17;;;;;;;5.47;3.80;;;;;;;;;;5053228;28;20059;-85
2023/10/26 14:15:03;;;;;;;6.60;3.33;;;;;;;;;;5056724;28;20186;-87
2023/10/26 14:17:48;;;;;;;5.45;3.20;;;;;;;;;;5058008;28;20064;-88
2023/10/26 14:20:34;;;;;;;4.97;3.03;;;;;;;;;;5050458;28;20547;-87
2023/10/26 14:23:19;;;;;;;7.03;2.25;;;;;;;;;;5057790;28;20474;-89
2023/10/26 14:26:04;;;;;;;7.88;2.65;;;;;;;;;;5057146;28;20032;-88
2023/10/26 14:28:50;;;;;;;11.13;3.45;;;;;;;;;;5053264;28;20118;-85
2023/10/26 14:31:35;;;;;;;9.30;2.25;;;;;;;;;;5055408;28;20474;-86
2023/10/26 14:34:20;;;;;;;9.98;2.80;;;;;;;;;;5052874;28;20456;-85
2023/10/26 14:37:05;;;;;;;6.95;2.10;;;;;;;;;;5054784;28;20032;-85
2023/10/26 14:39:54;;;;;;;11.27;3.42;;;;;;;;;;5053465;28;20437;-84
2023/10/26 14:42:39;;;;;;;6.05;2.42;;;;;;;;;;5053410;28;20036;-84
2023/10/26 14:45:25;;;;;;;6.55;1.92;;;;;;;;;;5055190;28;20039;-86
2023/10/26 14:48:10;;;;;;;5.07;1.95;;;;;;;;;;5053222;28;20493;-85
2023/10/26 14:50:59;;;;;;;9.55;2.40;;;;;;;;;;5054970;28;20021;-85
2023/10/26 14:53:44;;;;;;;8.20;2.22;;;;;;;;;;5056123;28;20024;-88
2023/10/26 14:56:30;;;;;;;5.88;2.08;;;;;;;;;;5041966;28;20024;-90
2023/10/26 14:59:15;;;;;;;9.60;2.20;;;;;;;;;;5040011;28;20044;-89
2023/10/26 15:02:00;;;;;;;6.63;1.65;;;;;;;;;;5051824;28;20082;-88
2023/10/26 15:04:46;;;;;;;8.13;1.90;;;;;;;;;;5048478;28;20131;-86
2023/10/26 15:07:31;;;;;;;7.68;1.65;;;;;;;;;;5054791;28;20036;-84
2023/10/26 15:10:16;;;;;;;11.23;2.97;;;;;;;;;;5052358;28;20038;-85
2023/10/26 15:13:03;;;;;;;8.07;1.95;;;;;;;;;;5053143;28;20086;-85
2023/10/26 15:15:56;;;;;;;5.28;1.73;;;;;;;;;;5053706;28;20489;-87
2023/10/26 15:18:42;;;;;;;3.38;1.48;;;;;;;;;;5051938;28;20169;-87
2023/10/26 15:21:27;;;;;;;6.15;2.05;;;;;;;;;;5033449;28;20024;-89
2023/10/26 15:24:12;;;;;;;2.97;1.65;;;;;;;;;;5056435;28;20564;-84
2023/10/26 15:27:01;;;;;;;8.32;2.88;;;;;;;;;;5053384;28;20097;-89
2023/10/26 15:29:58;;;;;;;7.30;2.83;;;;;;;;;;5052179;28;20029;-88
2023/10/26 15:32:43;;;;;;;8.05;2.40;;;;;;;;;;5060178;28;20436;-88
2023/10/26 15:35:29;;;;;;;7.78;1.83;;;;;;;;;;5040235;28;20017;-88
2023/10/26 15:38:14;;;;;;;7.40;2.20;;;;;;;;;;5026915;28;20407;-88
2023/10/26 15:41:00;;;;;;;5.97;1.92;;;;;;;;;;5016578;28;20678;-88
2023/10/26 15:43:45;;;;;;;5.55;1.95;;;;;;;;;;5047786;28;20043;-89
2023/10/26 15:46:30;;;;;;;6.93;1.92;;;;;;;;;;5015107;28;20047;-88
2023/10/26 15:49:16;;;;;;;7.25;2.20;;;;;;;;;;5044837;28;20491;-88
2023/10/26 15:52:01;;;;;;;7.82;1.60;;;;;;;;;;5038937;28;20024;-88
2023/10/26 15:54:47;;;;;;;4.78;1.92;;;;;;;;;;5041999;28;20035;-89
2023/10/26 15:57:33;;;;;;;6.18;1.65;;;;;;;;;;5040803;28;20077;-89
2023/10/26 16:00:18;;;;;;;6.97;1.52;;;;;;;;;;5052282;28;20017;-88
2023/10/26 16:03:03;;;;;;;3.58;1.70;;;;;;;;;;5049616;28;20040;-89
2023/10/26 16:05:48;;;;;;;7.68;1.98;;;;;;;;;;5038256;28;20093;-89
2023/10/26 16:08:34;;;;;;;6.55;1.95;;;;;;;;;;5059078;28;20034;-89
2023/10/26 16:11:20;;;;;;;5.28;1.77;;;;;;;;;;5038305;28;20040;-89
2023/10/26 16:14:05;;;;;;;5.72;1.65;;;;;;;;;;5041873;28;20036;-89
2023/10/26 16:16:53;;;;;;;4.45;1.88;;;;;;;;;;5044561;28;20107;-89
2023/10/26 16:19:38;;;;;;;9.15;2.05;;;;;;;;;;5036516;28;20041;-89
2023/10/26 16:22:23;;;;;;;6.93;2.15;;;;;;;;;;5047168;28;20021;-90
2023/10/26 16:25:08;;;;;;;7.30;1.95;;;;;;;;;;5052576;28;20028;-87
2023/10/26 16:27:54;;;;;;;9.10;2.13;;;;;;;;;;5027727;28;20066;-88
2023/10/26 16:30:40;;;;;;;6.40;2.42;;;;;;;;;;5053792;28;20024;-87
2023/10/26 16:33:28;;;;;;;13.75;2.05;;;;;;;;;;5055358;28;20086;-89
2023/10/26 16:36:14;;;;;;;3.72;1.55;;;;;;;;;;5054489;28;20028;-88
2023/10/26 16:38:59;;;;;;;7.75;1.70;;;;;;;;;;5048434;28;20116;-90
2023/10/26 16:41:45;;;;;;;7.15;1.88;;;;;;;;;;5048748;28;20029;-87
2023/10/26 16:44:30;;;;;;;9.90;2.80;;;;;;;;;;5043034;28;20028;-88
2023/10/26 16:47:15;;;;;;;4.85;1.88;;;;;;;;;;5051867;28;20029;-88
2023/10/26 16:50:04;;;;;;;6.47;2.53;;;;;;;;;;5055136;28;20328;-89
2023/10/26 16:52:50;;;;;;;6.80;2.13;;;;;;;;;;4999672;28;20079;-86
2023/10/26 16:55:35;;;;;;;6.63;2.42;;;;;;;;;;5049238;28;20051;-87
2023/10/26 16:58:20;;;;;;;5.95;1.73;;;;;;;;;;5054599;28;20024;-86
2023/10/26 17:01:07;;;;;;;9.40;2.35;;;;;;;;;;5054146;28;20090;-86
2023/10/26 17:03:52;;;;;;;7.18;2.60;;;;;;;;;;5045032;28;20029;-89
2023/10/26 17:06:37;;;;;;;9.88;3.00;;;;;;;;;;5025576;28;20451;-90
2023/10/26 17:09:26;;;;;;;7.47;2.30;;;;;;;;;;5151926;23;20110;-91
2023/10/26 17:12:11;;;;;;;7.97;2.45;;;;;;;;;;5034394;28;20033;-91
2023/10/26 17:15:18;;;;;;;10.85;2.90;;;;;;;;;;5071874;28;20402;-90
2023/10/26 17:18:05;;;;;;;8.63;2.25;;;;;;;;;;5067405;28;20009;-88
2023/10/26 17:20:54;;;;;;;6.50;2.20;;;;;;;;;;5057475;28;20016;-89
2023/10/26 17:23:41;;;;;;;6.57;2.75;;;;;;;;;;5079310;28;20461;-88
2023/10/26 17:26:38;;;;;;;7.50;2.17;;;;;;;;;;5065065;28;20060;-91
2023/10/26 17:29:24;;;;;;;11.13;2.55;;;;;;;;;;5068873;28;20028;-89
2023/10/26 17:32:09;;;;;;;7.43;2.53;;;;;;;;;;5063851;28;20025;-88
2023/10/26 17:34:54;;;;;;;12.52;2.60;;;;;;;;;;5066763;28;20024;-89
2023/10/26 17:37:39;;;;;;;8.70;3.03;;;;;;;;;;5050260;28;20025;-89
2023/10/26 17:40:25;;;;;;;12.75;3.90;;;;;;;;;;5071770;28;20164;-89
2023/10/26 17:43:12;;;;;;;8.20;3.30;;;;;;;;;;5067741;28;20021;-89